createdAt,value
2023-05-25T00:01:49.213Z,15.80
2023-05-25T00:04:17.610Z,16.10
2023-05-25T00:06:47.885Z,16.20
2023-05-25T00:09:15.523Z,14.30
2023-05-25T00:11:43.243Z,21.60
2023-05-25T00:14:10.843Z,18.90
2023-05-25T00:16:41.040Z,18.60
2023-05-25T00:19:11.174Z,21.30
2023-05-25T00:21:38.834Z,21.90
2023-05-25T00:24:06.418Z,19.40
2023-05-25T00:26:35.069Z,20.80
2023-05-25T00:29:03.942Z,19.20
2023-05-25T00:31:35.706Z,19.60
2023-05-25T00:34:03.333Z,22.70
2023-05-25T00:36:30.787Z,20.30
2023-05-25T00:38:58.177Z,21.70
2023-05-25T00:41:26.451Z,22.80
2023-05-25T00:43:53.808Z,20.10
2023-05-25T00:46:22.554Z,23.10
2023-05-25T00:48:52.707Z,21.70
2023-05-25T00:51:20.333Z,23.30
2023-05-25T00:53:47.748Z,25.60
2023-05-25T00:56:17.077Z,22.90
2023-05-25T00:58:44.455Z,25.90
2023-05-25T01:01:12.183Z,24.60
2023-05-25T01:03:45.984Z,25.00
2023-05-25T01:06:15.051Z,24.30
2023-05-25T01:08:44.417Z,23.50
2023-05-25T01:11:11.989Z,23.00
2023-05-25T01:13:39.641Z,23.80
2023-05-25T01:16:07.644Z,24.60
2023-05-25T01:18:35.092Z,26.50
2023-05-25T01:21:31.153Z,24.50
2023-05-25T01:24:12.092Z,25.70
2023-05-25T01:26:44.709Z,24.90
2023-05-25T01:29:12.465Z,22.80
2023-05-25T01:31:39.935Z,23.50
2023-05-25T01:34:07.478Z,26.00
2023-05-25T01:36:34.925Z,23.10
2023-05-25T01:39:06.970Z,25.50
2023-05-25T01:41:34.431Z,25.70
2023-05-25T01:44:01.924Z,23.90
2023-05-25T01:46:36.977Z,26.40
2023-05-25T01:49:30.518Z,25.90
2023-05-25T01:52:24.118Z,24.30
2023-05-25T01:55:02.972Z,24.80
2023-05-25T01:57:31.186Z,25.20
2023-05-25T02:00:00.519Z,23.30
2023-05-25T02:02:27.947Z,26.70
2023-05-25T02:04:55.789Z,24.60
2023-05-25T02:07:23.472Z,26.40
2023-05-25T02:09:51.309Z,23.20
2023-05-25T02:12:18.714Z,23.10
2023-05-25T02:14:48.497Z,23.40
2023-05-25T02:17:17.881Z,24.80
2023-05-25T02:19:46.677Z,25.20
2023-05-25T02:22:14.143Z,26.80
2023-05-25T02:24:42.228Z,28.70
2023-05-25T02:27:12.922Z,27.80
2023-05-25T02:29:40.861Z,27.80
2023-05-25T02:32:08.272Z,25.00
2023-05-25T02:34:35.921Z,24.40
2023-05-25T02:37:03.562Z,26.10
2023-05-25T02:39:31.016Z,24.60
2023-05-25T02:41:58.792Z,26.00
2023-05-25T02:44:26.782Z,24.70
2023-05-25T02:46:55.600Z,25.50
2023-05-25T02:49:23.718Z,27.20
2023-05-25T02:51:51.325Z,25.10
2023-05-25T02:54:19.195Z,28.40
2023-05-25T02:56:46.751Z,27.00
2023-05-25T02:59:15.911Z,27.30
2023-05-25T03:01:43.671Z,26.70
2023-05-25T03:04:11.189Z,25.40
2023-05-25T03:06:38.820Z,29.30
2023-05-25T03:09:09.981Z,25.50
2023-05-25T03:11:38.419Z,25.00
2023-05-25T03:14:06.135Z,24.00
2023-05-25T03:16:36.579Z,26.40
2023-05-25T03:19:08.713Z,27.70
2023-05-25T03:21:38.081Z,24.20
2023-05-25T03:24:06.357Z,26.70
2023-05-25T03:26:34.641Z,25.60
2023-05-25T03:29:02.330Z,27.30
2023-05-25T03:31:30.234Z,26.80
2023-05-25T03:33:58.271Z,30.30
2023-05-25T03:36:31.057Z,26.50
2023-05-25T03:38:58.581Z,29.80
2023-05-25T03:41:27.109Z,23.00
2023-05-25T03:43:54.735Z,23.50
2023-05-25T03:46:22.245Z,27.00
2023-05-25T03:48:49.956Z,23.70
2023-05-25T03:51:17.617Z,26.40
2023-05-25T03:53:46.122Z,25.50
2023-05-25T03:56:13.744Z,25.00
2023-05-25T03:58:41.634Z,27.60
2023-05-25T04:01:10.571Z,25.20
2023-05-25T04:03:38.374Z,22.60
2023-05-25T04:06:06.195Z,23.50
2023-05-25T04:08:34.340Z,25.10
2023-05-25T04:11:02.400Z,23.80
2023-05-25T04:13:29.940Z,22.50
2023-05-25T04:15:58.399Z,22.20
2023-05-25T04:18:31.654Z,27.30
2023-05-25T04:23:34.889Z,23.80
2023-05-25T04:26:06.169Z,20.40
2023-05-25T04:28:33.752Z,23.30
2023-05-25T04:31:13.671Z,21.30
2023-05-25T04:33:51.938Z,20.40
2023-05-25T04:36:32.871Z,24.80
2023-05-25T04:39:03.262Z,21.50
2023-05-25T04:41:31.340Z,23.80
2023-05-25T04:44:09.631Z,20.30
2023-05-25T04:46:44.739Z,22.20
2023-05-25T04:49:21.966Z,32.10
2023-05-25T04:51:49.337Z,23.90
2023-05-25T04:54:17.001Z,27.70
2023-05-25T04:56:44.861Z,26.40
2023-05-25T04:59:12.348Z,35.50
2023-05-25T05:01:42.300Z,20.40
2023-05-25T05:04:12.471Z,22.30
2023-05-25T05:06:39.883Z,23.00
2023-05-25T05:09:08.920Z,26.20
2023-05-25T05:11:36.306Z,23.00
2023-05-25T05:14:04.562Z,23.80
2023-05-25T05:16:35.207Z,22.30
2023-05-25T05:19:03.173Z,22.30
2023-05-25T05:21:30.785Z,23.10
2023-05-25T05:23:58.309Z,22.50
2023-05-25T05:26:27.785Z,22.50
2023-05-25T05:28:55.621Z,28.70
2023-05-25T05:31:24.484Z,21.30
2023-05-25T05:33:51.898Z,24.30
2023-05-25T05:36:19.394Z,22.20
2023-05-25T05:38:47.094Z,25.90
2023-05-25T05:41:14.620Z,21.00
2023-05-25T05:43:46.665Z,25.00
2023-05-25T05:46:14.104Z,20.90
2023-05-25T05:48:42.561Z,20.00
2023-05-25T05:51:10.642Z,19.70
2023-05-25T05:53:38.286Z,28.00
2023-05-25T05:56:07.185Z,22.00
2023-05-25T05:58:35.035Z,22.50
2023-05-25T06:01:04.375Z,21.10
2023-05-25T06:03:31.793Z,26.50
2023-05-25T06:05:59.316Z,20.50
2023-05-25T06:08:27.673Z,23.50
2023-05-25T06:10:56.209Z,25.90
2023-05-25T06:13:23.775Z,23.40
2023-05-25T06:15:51.974Z,25.60
2023-05-25T06:18:22.777Z,25.80
2023-05-25T06:20:50.467Z,18.80
2023-05-25T06:23:19.463Z,20.50
2023-05-25T06:25:52.447Z,20.40
2023-05-25T06:28:20.103Z,18.20
2023-05-25T06:30:49.114Z,21.80
2023-05-25T06:33:16.924Z,19.90
2023-05-25T06:35:44.599Z,25.60
2023-05-25T06:38:12.714Z,19.40
2023-05-25T06:40:40.049Z,26.90
2023-05-25T06:43:07.502Z,23.70
2023-05-25T06:45:42.463Z,23.40
2023-05-25T06:49:37.824Z,25.70
2023-05-25T06:52:06.469Z,20.00
2023-05-25T06:54:34.211Z,37.80
2023-05-25T06:57:01.634Z,24.10
2023-05-25T06:59:29.753Z,21.90
2023-05-25T07:01:59.232Z,17.30
2023-05-25T07:04:27.685Z,20.80
2023-05-25T07:06:55.194Z,23.90
2023-05-25T07:09:23.679Z,17.60
2023-05-25T07:11:52.079Z,20.50
2023-05-25T07:14:19.422Z,20.70
2023-05-25T07:16:46.822Z,20.30
2023-05-25T07:19:14.265Z,19.50
2023-05-25T07:21:41.694Z,21.20
2023-05-25T07:24:09.483Z,21.10
2023-05-25T07:26:37.194Z,21.30
2023-05-25T07:29:04.716Z,17.30
2023-05-25T07:31:32.111Z,21.20
2023-05-25T07:33:59.672Z,22.30
2023-05-25T07:36:26.981Z,20.50
2023-05-25T07:38:54.322Z,20.80
2023-05-25T07:41:21.649Z,23.80
2023-05-25T07:43:49.186Z,27.90
2023-05-25T07:46:17.385Z,23.20
2023-05-25T07:48:44.816Z,21.00
2023-05-25T07:51:12.242Z,27.30
2023-05-25T07:53:40.143Z,22.00
2023-05-25T07:56:10.462Z,24.90
2023-05-25T07:58:38.090Z,18.20
2023-05-25T08:01:05.682Z,21.30
2023-05-25T08:03:48.125Z,21.60
2023-05-25T08:06:17.358Z,24.90
2023-05-25T08:08:47.604Z,33.90
2023-05-25T08:11:15.147Z,23.90
2023-05-25T08:13:42.957Z,22.30
2023-05-25T08:16:10.286Z,27.00
2023-05-25T08:18:37.620Z,23.00
2023-05-25T08:21:05.151Z,24.40
2023-05-25T08:23:32.467Z,20.70
2023-05-25T08:26:01.213Z,20.20
2023-05-25T08:28:28.795Z,24.80
2023-05-25T08:30:58.302Z,25.60
2023-05-25T08:33:26.213Z,19.40
2023-05-25T08:35:53.855Z,21.20
2023-05-25T08:38:25.186Z,19.30
2023-05-25T08:43:34.098Z,18.90
2023-05-25T08:46:06.460Z,21.00
2023-05-25T08:48:41.807Z,21.40
2023-05-25T08:51:11.702Z,19.70
2023-05-25T08:53:40.855Z,24.40
2023-05-25T08:56:16.867Z,20.10
2023-05-25T08:58:57.395Z,18.40
2023-05-25T09:01:26.295Z,20.70
2023-05-25T09:03:54.315Z,25.60
2023-05-25T09:06:21.652Z,18.20
2023-05-25T09:08:49.151Z,28.50
2023-05-25T09:11:17.721Z,20.60
2023-05-25T09:13:53.926Z,22.00
2023-05-25T09:16:21.376Z,15.80
2023-05-25T09:18:49.478Z,20.00
2023-05-25T09:21:16.830Z,19.20
2023-05-25T09:23:44.236Z,28.40
2023-05-25T09:26:11.673Z,17.50
2023-05-25T09:28:46.911Z,16.80
2023-05-25T09:31:17.569Z,17.20
2023-05-25T09:33:46.128Z,21.10
2023-05-25T09:36:18.147Z,17.90
2023-05-25T09:38:46.292Z,14.70
2023-05-25T09:41:14.073Z,16.20
2023-05-25T09:43:46.581Z,18.00
2023-05-25T09:46:21.995Z,16.80
2023-05-25T09:48:58.230Z,20.80
2023-05-25T09:51:37.745Z,15.00
2023-05-25T09:54:05.478Z,16.30
2023-05-25T09:56:36.162Z,18.60
2023-05-25T09:59:04.309Z,14.70
2023-05-25T10:01:32.643Z,15.50
2023-05-25T10:04:04.883Z,17.50
2023-05-25T10:06:33.614Z,13.30
2023-05-25T10:09:01.434Z,15.70
2023-05-25T10:11:28.919Z,25.80
2023-05-25T10:13:56.814Z,13.50
2023-05-25T10:16:26.325Z,16.40
2023-05-25T10:19:16.213Z,14.40
2023-05-25T10:21:47.906Z,13.90
2023-05-25T10:26:46.416Z,15.10
2023-05-25T10:29:13.995Z,14.60
2023-05-25T10:31:41.547Z,28.70
2023-05-25T10:34:09.399Z,16.50
2023-05-25T10:36:36.801Z,19.00
2023-05-25T10:39:04.146Z,14.90
2023-05-25T10:41:31.600Z,16.60
2023-05-25T10:43:59.096Z,18.30
2023-05-25T10:46:26.452Z,12.80
2023-05-25T10:48:54.378Z,17.20
2023-05-25T10:51:21.864Z,15.10
2023-05-25T10:53:59.162Z,15.10
2023-05-25T10:56:26.672Z,14.30
2023-05-25T10:58:54.009Z,17.50
2023-05-25T11:01:21.437Z,15.50
2023-05-25T11:04:16.049Z,14.10
2023-05-25T11:06:46.775Z,15.30
2023-05-25T11:09:33.104Z,15.50
2023-05-25T11:12:02.489Z,15.60
2023-05-25T11:14:31.616Z,13.40
2023-05-25T11:17:20.838Z,21.10
2023-05-25T11:19:56.450Z,15.20
2023-05-25T11:22:35.509Z,16.60
2023-05-25T11:25:04.224Z,12.40
2023-05-25T11:27:31.873Z,14.30
2023-05-25T11:29:59.672Z,15.10
2023-05-25T11:32:28.366Z,17.40
2023-05-25T11:34:57.390Z,17.50
2023-05-25T11:37:26.616Z,16.60
2023-05-25T11:39:54.099Z,13.00
2023-05-25T11:42:22.839Z,20.80
2023-05-25T11:44:50.456Z,15.30
2023-05-25T11:47:22.890Z,13.10
2023-05-25T11:49:50.767Z,19.00
2023-05-25T11:52:19.059Z,18.10
2023-05-25T11:54:46.579Z,17.60
2023-05-25T11:57:18.155Z,12.40
2023-05-25T11:59:50.314Z,14.50
2023-05-25T12:02:17.773Z,17.40
2023-05-25T12:04:59.408Z,17.80
2023-05-25T12:07:27.324Z,17.50
2023-05-25T12:10:07.951Z,24.80
2023-05-25T12:12:45.877Z,16.40
2023-05-25T12:15:20.721Z,19.10
2023-05-25T12:17:48.740Z,22.20
2023-05-25T12:20:16.910Z,21.00
2023-05-25T12:22:45.134Z,22.00
2023-05-25T12:25:13.188Z,15.60
2023-05-25T12:27:40.909Z,19.30
2023-05-25T12:30:09.694Z,12.80
2023-05-25T12:33:02.595Z,15.40
2023-05-25T12:35:32.065Z,15.10
2023-05-25T12:38:12.424Z,16.40
2023-05-25T12:40:41.229Z,14.00
2023-05-25T12:43:08.778Z,19.50
2023-05-25T12:45:40.889Z,15.60
2023-05-25T12:48:08.282Z,12.80
2023-05-25T12:50:37.229Z,21.40
2023-05-25T12:53:04.941Z,22.10
2023-05-25T12:55:33.707Z,14.20
2023-05-25T12:58:03.038Z,13.10
2023-05-25T13:00:37.467Z,16.20
2023-05-25T13:03:07.765Z,18.20
2023-05-25T13:05:39.385Z,13.20
2023-05-25T13:08:07.247Z,14.20
2023-05-25T13:10:37.516Z,16.50
2023-05-25T13:13:05.001Z,17.90
2023-05-25T13:15:32.501Z,13.10
2023-05-25T13:17:59.952Z,14.60
2023-05-25T13:20:28.182Z,19.10
2023-05-25T13:22:56.025Z,14.10
2023-05-25T13:25:23.755Z,16.80
2023-05-25T13:27:51.868Z,14.90
2023-05-25T13:30:21.848Z,13.10
2023-05-25T13:32:51.452Z,14.00
2023-05-25T13:35:23.541Z,17.10
2023-05-25T13:37:51.400Z,11.80
2023-05-25T13:40:19.161Z,19.10
2023-05-25T13:42:46.787Z,13.70
2023-05-25T13:45:14.153Z,12.70
2023-05-25T13:47:44.006Z,17.00
2023-05-25T13:50:11.806Z,14.20
2023-05-25T13:52:39.182Z,15.80
2023-05-25T13:55:07.589Z,17.30
2023-05-25T13:57:53.682Z,17.60
2023-05-25T14:00:39.269Z,17.20
2023-05-25T14:03:07.127Z,20.60
2023-05-25T14:05:34.545Z,19.00
2023-05-25T14:08:04.668Z,18.60
2023-05-25T14:10:32.043Z,15.20
2023-05-25T14:12:59.496Z,37.10
2023-05-25T14:15:26.876Z,14.90
2023-05-25T14:17:57.126Z,19.50
2023-05-25T14:20:26.268Z,11.70
2023-05-25T14:22:54.153Z,17.20
2023-05-25T14:25:21.552Z,22.50
2023-05-25T14:27:48.874Z,26.40
2023-05-25T14:30:16.528Z,18.60
2023-05-25T14:32:44.041Z,19.90
2023-05-25T14:35:11.428Z,13.90
2023-05-25T14:37:38.804Z,11.70
2023-05-25T14:40:06.832Z,18.00
2023-05-25T14:42:34.794Z,18.20
2023-05-25T14:45:02.395Z,18.00
2023-05-25T14:47:29.720Z,22.80
2023-05-25T14:49:57.150Z,16.00
2023-05-25T14:52:24.557Z,24.80
2023-05-25T14:54:52.176Z,12.70
2023-05-25T14:57:19.489Z,15.50
2023-05-25T14:59:46.818Z,15.20
2023-05-25T15:02:14.245Z,12.40
2023-05-25T15:04:41.823Z,16.00
2023-05-25T15:07:11.529Z,13.00
2023-05-25T15:12:08.210Z,15.00
2023-05-25T15:14:39.859Z,13.30
2023-05-25T15:17:07.233Z,16.50
2023-05-25T15:19:34.647Z,22.20
2023-05-25T15:22:02.025Z,24.30
2023-05-25T15:24:29.482Z,17.40
2023-05-25T15:26:56.950Z,20.20
2023-05-25T15:29:24.503Z,15.50
2023-05-25T15:31:53.116Z,33.60
2023-05-25T15:34:21.154Z,42.10
2023-05-25T15:36:48.588Z,11.00
2023-05-25T15:39:15.942Z,11.30
2023-05-25T15:41:43.331Z,10.80
2023-05-25T15:44:12.846Z,29.00
2023-05-25T15:46:41.094Z,14.90
2023-05-25T15:49:11.607Z,11.50
2023-05-25T15:51:41.720Z,10.40
2023-05-25T15:54:12.742Z,65.40
2023-05-25T15:56:41.706Z,12.20
2023-05-25T15:59:12.306Z,24.10
2023-05-25T16:01:39.887Z,15.40
2023-05-25T16:04:08.083Z,10.00
2023-05-25T16:06:36.384Z,20.80
2023-05-25T16:09:04.390Z,15.90
2023-05-25T16:11:34.127Z,14.00
2023-05-25T16:14:01.672Z,16.20
2023-05-25T16:16:29.738Z,13.50
2023-05-25T16:18:57.302Z,15.20
2023-05-25T16:21:24.916Z,16.00
2023-05-25T16:23:52.276Z,16.40
2023-05-25T16:26:19.932Z,19.60
2023-05-25T16:28:47.246Z,13.30
2023-05-25T16:31:15.813Z,20.50
2023-05-25T16:33:45.470Z,18.00
2023-05-25T16:36:14.147Z,16.70
2023-05-25T16:38:41.701Z,14.10
2023-05-25T16:41:09.208Z,17.40
2023-05-25T16:43:36.575Z,19.00
2023-05-25T16:46:03.994Z,13.60
2023-05-25T16:48:31.584Z,12.60
2023-05-25T16:50:58.941Z,13.90
2023-05-25T16:53:26.348Z,14.70
2023-05-25T16:55:53.723Z,15.10
2023-05-25T16:58:21.695Z,18.30
2023-05-25T17:00:49.056Z,23.10
2023-05-25T17:03:16.612Z,14.90
2023-05-25T17:05:44.400Z,15.90
2023-05-25T17:08:11.869Z,22.40
2023-05-25T17:10:39.236Z,15.90
2023-05-25T17:13:06.571Z,17.80
2023-05-25T17:15:33.935Z,18.70
2023-05-25T17:18:01.373Z,25.10
2023-05-25T17:20:28.814Z,21.30
2023-05-25T17:22:56.560Z,20.20
2023-05-25T17:25:27.192Z,17.00
2023-05-25T17:27:55.423Z,14.60
2023-05-25T17:30:22.753Z,20.50
2023-05-25T17:32:50.315Z,18.60
2023-05-25T17:35:17.655Z,20.00
2023-05-25T17:37:44.922Z,14.80
2023-05-25T17:40:12.920Z,18.20
2023-05-25T17:42:40.642Z,17.40
2023-05-25T17:45:11.512Z,19.50
2023-05-25T17:47:38.920Z,42.20
2023-05-25T17:50:06.863Z,15.40
2023-05-25T17:52:34.172Z,14.40
2023-05-25T17:55:01.533Z,13.90
2023-05-25T17:57:28.935Z,13.10
2023-05-25T17:59:56.199Z,12.80
2023-05-25T18:02:24.003Z,10.00
2023-05-25T18:04:51.379Z,9.90
2023-05-25T18:07:21.139Z,13.00
2023-05-25T18:09:48.540Z,11.20
2023-05-25T18:12:15.905Z,11.50
2023-05-25T18:14:43.266Z,10.60
2023-05-25T18:17:11.737Z,8.30
2023-05-25T18:19:39.380Z,10.90
2023-05-25T18:22:06.864Z,17.40
2023-05-25T18:24:34.196Z,19.00
2023-05-25T18:27:03.941Z,15.30
2023-05-25T18:29:31.745Z,14.90
2023-05-25T18:31:59.224Z,16.10
2023-05-25T18:34:26.752Z,15.10
2023-05-25T18:36:54.115Z,11.30
2023-05-25T18:39:21.514Z,11.20
2023-05-25T18:41:49.285Z,12.10
2023-05-25T18:44:16.698Z,13.30
2023-05-25T18:46:46.113Z,10.10
2023-05-25T18:49:13.869Z,12.00
2023-05-25T18:51:41.202Z,10.60
2023-05-25T18:54:09.001Z,17.20
2023-05-25T18:56:36.735Z,14.30
2023-05-25T18:59:04.130Z,12.10
2023-05-25T19:01:32.324Z,10.60
2023-05-25T19:07:02.136Z,10.30
2023-05-25T19:09:29.694Z,13.20
2023-05-25T19:11:57.430Z,14.90
2023-05-25T19:14:24.702Z,19.00
2023-05-25T19:16:52.353Z,15.30
2023-05-25T19:19:19.686Z,20.40
2023-05-25T19:21:47.090Z,17.70
2023-05-25T19:24:14.743Z,22.20
2023-05-25T19:26:42.172Z,21.70
2023-05-25T19:29:09.659Z,26.80
2023-05-25T19:31:37.058Z,29.80
2023-05-25T19:34:04.484Z,28.10
2023-05-25T19:36:32.801Z,31.20
2023-05-25T19:39:00.184Z,30.30
2023-05-25T19:41:27.913Z,31.40
2023-05-25T19:43:55.413Z,31.50
2023-05-25T19:46:22.741Z,34.40
2023-05-25T19:48:50.816Z,30.70
2023-05-25T19:51:18.215Z,32.20
2023-05-25T19:53:47.969Z,36.90
2023-05-25T19:56:15.557Z,33.70
2023-05-25T19:58:43.523Z,33.70
2023-05-25T20:01:11.374Z,34.70
2023-05-25T20:03:39.114Z,37.50
2023-05-25T20:06:06.608Z,31.80
2023-05-25T20:08:34.082Z,36.80
2023-05-25T20:11:02.368Z,36.60
2023-05-25T20:13:29.796Z,35.80
2023-05-25T20:15:57.140Z,36.50
2023-05-25T20:18:24.494Z,35.40
2023-05-25T20:20:51.828Z,36.90
2023-05-25T20:23:19.345Z,38.00
2023-05-25T20:25:46.853Z,34.20
2023-05-25T20:28:14.387Z,32.90
2023-05-25T20:30:42.034Z,33.20
2023-05-25T20:33:09.455Z,37.10
2023-05-25T20:35:37.315Z,33.50
2023-05-25T20:38:04.648Z,36.10
2023-05-25T20:40:31.951Z,34.50
2023-05-25T20:42:59.298Z,35.10
2023-05-25T20:45:26.664Z,33.20
2023-05-25T20:48:04.101Z,36.10
2023-05-25T20:50:31.627Z,38.70
2023-05-25T20:52:59.045Z,37.10
2023-05-25T20:55:26.492Z,34.80
2023-05-25T20:57:53.938Z,40.10
2023-05-25T21:00:23.620Z,36.40
2023-05-25T21:02:51.303Z,40.40
2023-05-25T21:05:18.829Z,39.40
2023-05-25T21:07:46.520Z,38.40
2023-05-25T21:10:23.053Z,42.00
2023-05-25T21:12:50.472Z,42.70
2023-05-25T21:15:17.754Z,44.90
2023-05-25T21:17:45.181Z,44.70
2023-05-25T21:20:12.721Z,41.90
2023-05-25T21:22:40.110Z,42.90
2023-05-25T21:25:08.153Z,42.50
2023-05-25T21:27:35.472Z,40.00
2023-05-25T21:30:04.426Z,40.90
2023-05-25T21:32:32.590Z,43.10
2023-05-25T21:35:00.038Z,43.60
2023-05-25T21:37:28.243Z,43.40
2023-05-25T21:39:55.826Z,42.50
2023-05-25T21:42:23.643Z,47.50
2023-05-25T21:44:51.004Z,43.80
2023-05-25T21:47:18.452Z,51.10
2023-05-25T21:49:45.928Z,50.30
2023-05-25T21:52:19.632Z,51.90
2023-05-25T21:54:47.005Z,48.30
2023-05-25T21:57:14.478Z,49.40
2023-05-25T21:59:41.731Z,45.90
2023-05-25T22:02:09.318Z,48.10
2023-05-25T22:04:36.795Z,48.00
2023-05-25T22:07:22.412Z,57.00
2023-05-25T22:09:49.723Z,49.30
2023-05-25T22:12:17.117Z,50.20
2023-05-25T22:14:44.449Z,49.60
2023-05-25T22:17:11.918Z,47.30
2023-05-25T22:19:39.241Z,48.70
2023-05-25T22:22:07.055Z,44.60
2023-05-25T22:24:43.431Z,48.90
2023-05-25T22:27:11.057Z,52.10
2023-05-25T22:29:38.517Z,49.20
2023-05-25T22:32:05.884Z,45.90
2023-05-25T22:34:33.212Z,49.20
2023-05-25T22:37:00.549Z,47.00
2023-05-25T22:39:27.862Z,50.70
2023-05-25T22:41:55.246Z,45.10
2023-05-25T22:44:22.585Z,47.10
2023-05-25T22:46:51.074Z,49.40
2023-05-25T22:49:18.499Z,55.40
2023-05-25T22:51:45.959Z,50.70
2023-05-25T22:54:13.507Z,42.30
2023-05-25T22:56:41.130Z,45.70
2023-05-25T22:59:08.512Z,49.10
2023-05-25T23:01:35.864Z,44.00
2023-05-25T23:04:03.599Z,44.90
2023-05-25T23:06:31.235Z,44.60
2023-05-25T23:08:58.589Z,45.80
2023-05-25T23:11:27.134Z,45.80
2023-05-25T23:13:54.839Z,44.90
2023-05-25T23:16:22.646Z,41.50
2023-05-25T23:18:51.788Z,44.90
2023-05-25T23:21:19.115Z,43.70
2023-05-25T23:23:46.402Z,42.10
2023-05-25T23:26:13.743Z,48.20
2023-05-25T23:28:41.352Z,43.10
2023-05-25T23:31:08.664Z,45.40
2023-05-25T23:33:36.162Z,42.90
2023-05-25T23:36:03.640Z,44.60
2023-05-25T23:38:31.283Z,43.70
2023-05-25T23:40:58.592Z,43.10
2023-05-25T23:43:26.283Z,47.20
2023-05-25T23:45:53.598Z,46.10
2023-05-25T23:48:21.081Z,47.80
2023-05-25T23:50:48.768Z,45.70
2023-05-25T23:53:16.061Z,57.00
2023-05-25T23:55:43.703Z,51.40
2023-05-25T23:58:11.180Z,47.20
